Time;durP1;ratioP1;P1;durP2;ratioP2;P2;SDS_P1;SDS_P2;PMS_P1;PMS_P2;Temp;Humidity;BMP_temperature;BMP_pressure;BME280_temperature;BME280_humidity;BME280_pressure;Samples;Min_cycle;Max_cycle;Signal;HPM_P1;HPM_P2
2022/05/04 00:01:36;;;;;;;;;;;18.80;99.90;;;;;;5074987;28;19912;-78
2022/05/04 00:04:03;;;;;;;;;;;18.90;99.90;;;;;;5075326;28;20313;-78
2022/05/04 00:06:29;;;;;;;;;;;18.90;99.90;;;;;;5074903;27;19965;-80
2022/05/04 00:08:56;;;;;;;;;;;19.00;99.90;;;;;;5098087;28;19921;-78
2022/05/04 00:11:23;;;;;;;;;;;19.00;99.90;;;;;;5116423;28;20290;-77
2022/05/04 00:13:49;;;;;;;;;;;19.20;99.90;;;;;;5116322;28;19961;-77
2022/05/04 00:16:16;;;;;;;;;;;19.30;99.90;;;;;;5116288;28;19912;-77
2022/05/04 00:18:43;;;;;;;;;;;19.40;99.90;;;;;;5116225;28;20328;-77
2022/05/04 00:21:09;;;;;;;;;;;19.80;99.90;;;;;;5116103;28;20273;-77
2022/05/04 00:23:36;;;;;;;;;;;20.00;99.90;;;;;;5115754;28;19912;-78
2022/05/04 00:26:03;;;;;;;;;;;20.20;99.90;;;;;;5115005;28;19908;-79
2022/05/04 00:28:30;;;;;;;;;;;20.50;99.90;;;;;;5116106;28;19908;-79
2022/05/04 00:30:57;;;;;;;;;;;20.50;99.90;;;;;;5115770;28;19912;-78
2022/05/04 00:33:23;;;;;;;;;;;20.60;99.90;;;;;;5115810;28;19912;-78
2022/05/04 00:35:50;;;;;;;;;;;20.60;99.90;;;;;;5115469;28;20824;-78
2022/05/04 00:38:17;;;;;;;;;;;20.70;99.90;;;;;;5115866;28;19912;-77
2022/05/04 00:40:43;;;;;;;;;;;20.80;99.90;;;;;;5115927;28;19914;-78
2022/05/04 00:43:20;;;;;;;;;;;21.00;99.90;;;;;;5115827;28;19915;-78
2022/05/04 00:45:46;;;;;;;;;;;20.90;99.90;;;;;;5115642;28;20286;-78
2022/05/04 00:48:13;;;;;;;;;;;21.00;99.90;;;;;;5115679;28;19931;-78
2022/05/04 00:50:40;;;;;;;;;;;21.00;99.90;;;;;;5115220;28;19920;-78
2022/05/04 00:53:07;;;;;;;;;;;21.20;99.90;;;;;;5115581;28;19908;-78
2022/05/04 00:55:33;;;;;;;;;;;21.20;99.90;;;;;;5115327;28;20025;-78
2022/05/04 01:00:48;;;;;;;;;;;21.30;99.90;;;;;;5115440;28;20011;-78
2022/05/04 01:03:15;;;;;;;;;;;21.40;99.90;;;;;;5115207;28;19976;-78
2022/05/04 01:05:43;;;;;;;;;;;21.50;99.90;;;;;;5114930;28;19915;-78
2022/05/04 01:08:10;;;;;;;;;;;22.10;99.90;;;;;;5115352;28;19915;-78
2022/05/04 01:10:36;;;;;;;;;;;22.80;99.90;;;;;;5115176;28;20281;-78
2022/05/04 01:13:03;;;;;;;;;;;22.80;99.90;;;;;;5115054;28;19969;-78
2022/05/04 01:15:29;;;;;;;;;;;23.20;99.90;;;;;;5115146;28;20271;-79
2022/05/04 01:17:56;;;;;;;;;;;23.70;99.90;;;;;;5113623;28;20389;-78
2022/05/04 01:20:24;;;;;;;;;;;23.70;99.90;;;;;;5114813;28;19912;-79
2022/05/04 01:22:51;;;;;;;;;;;23.50;99.90;;;;;;5114945;28;19966;-78
2022/05/04 01:25:17;;;;;;;;;;;23.40;99.90;;;;;;5114968;28;19908;-78
2022/05/04 01:27:44;;;;;;;;;;;23.10;99.90;;;;;;5114584;28;19998;-80
2022/05/04 01:30:12;;;;;;;;;;;22.80;99.90;;;;;;5114707;28;19915;-78
2022/05/04 01:32:39;;;;;;;;;;;22.60;99.90;;;;;;5114767;28;19915;-79
2022/05/04 01:35:06;;;;;;;;;;;22.50;99.90;;;;;;5114429;28;20378;-78
2022/05/04 01:37:33;;;;;;;;;;;22.50;99.90;;;;;;5114291;28;19908;-78
2022/05/04 01:39:59;;;;;;;;;;;22.40;99.90;;;;;;5114714;28;19908;-79
2022/05/04 01:42:26;;;;;;;;;;;22.50;99.90;;;;;;5114529;28;19919;-77
2022/05/04 01:44:53;;;;;;;;;;;22.50;99.90;;;;;;5114644;28;19998;-78
2022/05/04 01:47:19;;;;;;;;;;;22.50;99.90;;;;;;5114540;28;19912;-78
2022/05/04 01:49:46;;;;;;;;;;;22.40;99.90;;;;;;5097155;28;19924;-82
2022/05/04 01:52:13;;;;;;;;;;;22.40;99.90;;;;;;5081650;28;19912;-84
2022/05/04 01:54:40;;;;;;;;;;;22.40;99.90;;;;;;5073049;28;20313;-81
2022/05/04 01:57:06;;;;;;;;;;;22.40;99.90;;;;;;5073027;28;19912;-83
2022/05/04 01:59:33;;;;;;;;;;;22.30;99.90;;;;;;5088499;28;20394;-85
2022/05/04 02:02:00;;;;;;;;;;;22.20;99.90;;;;;;5073108;28;19908;-83
2022/05/04 02:04:26;;;;;;;;;;;22.20;99.90;;;;;;5072930;28;19913;-83
2022/05/04 02:06:54;;;;;;;;;;;22.30;99.90;;;;;;5072755;28;19908;-80
2022/05/04 02:09:21;;;;;;;;;;;22.30;99.90;;;;;;5072925;28;20011;-80
2022/05/04 02:11:48;;;;;;;;;;;22.20;99.90;;;;;;5072633;28;19931;-80
2022/05/04 02:14:14;;;;;;;;;;;22.20;99.90;;;;;;5072858;28;19951;-80
2022/05/04 02:16:41;;;;;;;;;;;22.20;99.90;;;;;;5072841;28;19909;-79
2022/05/04 02:19:08;;;;;;;;;;;22.20;99.90;;;;;;5072733;28;20283;-79
2022/05/04 02:21:34;;;;;;;;;;;22.10;99.90;;;;;;5072566;28;19908;-82
2022/05/04 02:24:01;;;;;;;;;;;21.90;99.90;;;;;;5072747;28;19944;-80
2022/05/04 02:26:28;;;;;;;;;;;21.90;99.90;;;;;;5072823;28;19999;-81
2022/05/04 02:28:55;;;;;;;;;;;21.80;99.90;;;;;;5072891;28;19912;-80
2022/05/04 02:31:21;;;;;;;;;;;22.00;99.90;;;;;;5072566;28;19915;-81
2022/05/04 02:33:49;;;;;;;;;;;22.20;99.90;;;;;;5072438;28;19964;-83
2022/05/04 02:39:00;;;;;;;;;;;22.40;99.90;;;;;;5073160;28;19923;-81
2022/05/04 02:41:27;;;;;;;;;;;22.40;99.90;;;;;;5072815;28;20003;-83
2022/05/04 02:43:53;;;;;;;;;;;22.30;99.90;;;;;;5072319;28;19912;-83
2022/05/04 02:46:22;;;;;;;;;;;22.40;99.90;;;;;;5072744;28;19979;-88
2022/05/04 02:48:49;;;;;;;;;;;22.40;99.90;;;;;;5072832;28;19915;-83
2022/05/04 02:51:16;;;;;;;;;;;22.50;99.90;;;;;;5076398;28;19955;-84
2022/05/04 02:53:43;;;;;;;;;;;22.50;99.90;;;;;;5076337;28;20014;-85
2022/05/04 02:56:10;;;;;;;;;;;22.50;99.90;;;;;;5076608;28;19915;-86
2022/05/04 02:58:37;;;;;;;;;;;22.40;99.90;;;;;;5076233;28;19962;-86
2022/05/04 03:04:08;;;;;;;;;;;22.40;99.90;;;;;;5076732;28;19915;-85
2022/05/04 03:06:35;;;;;;;;;;;22.50;99.90;;;;;;5076185;28;19915;-81
2022/05/04 03:09:02;;;;;;;;;;;22.60;99.90;;;;;;5110367;28;19907;-82
2022/05/04 03:14:13;;;;;;;;;;;22.40;99.90;;;;;;5117389;28;20290;-83
2022/05/04 03:16:39;;;;;;;;;;;22.20;99.90;;;;;;5117437;28;19908;-82
2022/05/04 03:19:07;;;;;;;;;;;22.20;99.90;;;;;;5117584;28;19955;-81
2022/05/04 03:21:34;;;;;;;;;;;22.40;99.90;;;;;;5116929;28;19914;-82
2022/05/04 03:24:01;;;;;;;;;;;22.30;99.90;;;;;;5117432;28;19908;-83
2022/05/04 03:26:27;;;;;;;;;;;22.30;99.90;;;;;;5117313;28;19908;-81
2022/05/04 03:28:55;;;;;;;;;;;22.70;99.90;;;;;;5117338;27;19908;-83
2022/05/04 03:31:22;;;;;;;;;;;22.70;99.90;;;;;;5117074;28;19908;-84
2022/05/04 03:33:48;;;;;;;;;;;22.60;99.90;;;;;;5117019;28;19954;-84
2022/05/04 03:36:15;;;;;;;;;;;22.40;99.90;;;;;;5116868;27;19916;-84
2022/05/04 03:38:44;;;;;;;;;;;22.30;99.90;;;;;;5117045;28;20286;-84
2022/05/04 03:41:10;;;;;;;;;;;22.20;99.90;;;;;;5117088;28;19931;-83
2022/05/04 03:43:37;;;;;;;;;;;22.30;99.90;;;;;;5116706;28;19915;-83
2022/05/04 03:46:16;;;;;;;;;;;22.30;99.90;;;;;;5116696;28;19931;-82
2022/05/04 03:48:43;;;;;;;;;;;22.30;99.90;;;;;;5116921;28;19915;-83
2022/05/04 03:51:10;;;;;;;;;;;22.20;99.90;;;;;;5116302;28;19919;-83
2022/05/04 03:53:37;;;;;;;;;;;22.10;99.90;;;;;;5116316;28;19912;-83
2022/05/04 03:56:04;;;;;;;;;;;21.90;99.90;;;;;;5116703;28;19912;-82
2022/05/04 03:58:31;;;;;;;;;;;21.90;99.90;;;;;;5116635;28;19959;-85
2022/05/04 04:00:58;;;;;;;;;;;22.00;99.90;;;;;;5116474;28;19908;-85
2022/05/04 04:03:24;;;;;;;;;;;22.00;99.90;;;;;;5114843;28;19914;-86
2022/05/04 04:05:51;;;;;;;;;;;22.20;99.90;;;;;;5086531;28;19939;-84
2022/05/04 04:08:17;;;;;;;;;;;22.10;99.90;;;;;;5116342;28;19911;-86
2022/05/04 04:10:44;;;;;;;;;;;22.20;99.90;;;;;;5116764;28;20338;-83
2022/05/04 04:13:11;;;;;;;;;;;22.20;99.90;;;;;;5116722;28;19908;-82
2022/05/04 04:15:38;;;;;;;;;;;22.20;99.90;;;;;;5116217;28;19919;-82
2022/05/04 04:18:04;;;;;;;;;;;22.10;99.90;;;;;;5116459;28;19907;-78
2022/05/04 04:23:19;;;;;;;;;;;22.20;99.90;;;;;;5116426;28;19915;-77
2022/05/04 04:25:45;;;;;;;;;;;22.10;99.90;;;;;;5115938;28;19934;-79
2022/05/04 04:28:12;;;;;;;;;;;22.00;99.90;;;;;;5116266;28;19912;-80
2022/05/04 04:30:39;;;;;;;;;;;22.00;99.90;;;;;;5116162;28;19931;-79
2022/05/04 04:33:06;;;;;;;;;;;21.90;99.90;;;;;;5116291;28;19915;-79
2022/05/04 04:35:36;;;;;;;;;;;22.00;99.90;;;;;;5115904;28;19912;-79
2022/05/04 04:38:03;;;;;;;;;;;22.00;99.90;;;;;;5115952;28;19908;-78
2022/05/04 04:40:30;;;;;;;;;;;22.00;99.90;;;;;;5115933;28;19914;-80
2022/05/04 04:42:57;;;;;;;;;;;21.90;99.90;;;;;;5115906;28;19907;-79
2022/05/04 04:45:24;;;;;;;;;;;22.00;99.90;;;;;;5115865;28;19908;-79
2022/05/04 04:47:50;;;;;;;;;;;21.90;99.90;;;;;;5115618;28;20312;-79
2022/05/04 04:50:17;;;;;;;;;;;21.90;99.90;;;;;;5115591;28;20006;-79
2022/05/04 04:52:44;;;;;;;;;;;21.80;99.90;;;;;;5115770;28;19908;-79
2022/05/04 04:55:11;;;;;;;;;;;21.90;99.90;;;;;;5115494;28;19963;-79
2022/05/04 04:57:38;;;;;;;;;;;21.90;99.90;;;;;;5115503;28;19908;-79
2022/05/04 05:00:05;;;;;;;;;;;21.80;99.90;;;;;;5115397;28;19935;-79
2022/05/04 05:02:35;;;;;;;;;;;21.90;99.90;;;;;;5115504;28;19908;-80
2022/05/04 05:05:02;;;;;;;;;;;22.00;99.90;;;;;;5115342;28;19912;-79
2022/05/04 05:07:29;;;;;;;;;;;22.20;99.90;;;;;;5115518;28;19908;-79
2022/05/04 05:09:56;;;;;;;;;;;22.10;99.90;;;;;;5115427;28;20354;-78
2022/05/04 05:12:23;;;;;;;;;;;22.10;99.90;;;;;;5114588;28;19909;-79
2022/05/04 05:17:35;;;;;;;;;;;22.20;99.90;;;;;;5115650;28;19918;-80
2022/05/04 05:20:02;;;;;;;;;;;22.10;99.90;;;;;;5115083;28;19907;-79
2022/05/04 05:22:29;;;;;;;;;;;22.10;99.90;;;;;;5115289;28;19907;-79
2022/05/04 05:24:56;;;;;;;;;;;22.00;99.90;;;;;;5115389;28;19919;-79
2022/05/04 05:27:23;;;;;;;;;;;21.90;99.90;;;;;;5115185;28;20411;-79
2022/05/04 05:29:50;;;;;;;;;;;21.80;99.90;;;;;;5093926;28;20006;-79
2022/05/04 05:32:16;;;;;;;;;;;21.80;99.90;;;;;;5087134;28;19912;-79
2022/05/04 05:34:43;;;;;;;;;;;21.70;99.90;;;;;;5115166;28;20360;-79
2022/05/04 05:37:09;;;;;;;;;;;21.60;99.90;;;;;;5116398;28;19908;-79
2022/05/04 05:39:36;;;;;;;;;;;21.70;99.90;;;;;;5115605;28;19912;-78
2022/05/04 05:42:03;;;;;;;;;;;21.70;99.90;;;;;;5115836;28;19951;-80
2022/05/04 05:44:30;;;;;;;;;;;21.70;99.90;;;;;;5119964;28;19907;-78
2022/05/04 05:46:56;;;;;;;;;;;21.70;99.90;;;;;;5115434;28;19908;-80
2022/05/04 05:49:23;;;;;;;;;;;21.70;99.90;;;;;;5114988;28;19971;-79
2022/05/04 05:51:50;;;;;;;;;;;21.70;99.90;;;;;;5115113;28;19911;-79
2022/05/04 05:54:16;;;;;;;;;;;21.70;99.90;;;;;;5115878;28;19924;-79
2022/05/04 05:56:43;;;;;;;;;;;21.80;99.90;;;;;;5114822;28;19943;-80
2022/05/04 05:59:10;;;;;;;;;;;21.70;99.90;;;;;;5115012;28;19908;-79
2022/05/04 06:01:38;;;;;;;;;;;21.70;99.90;;;;;;5120989;28;19967;-77
2022/05/04 06:04:08;;;;;;;;;;;21.80;99.90;;;;;;5120171;28;19908;-76
2022/05/04 06:06:34;;;;;;;;;;;21.70;99.90;;;;;;5115485;28;19908;-77
2022/05/04 06:09:01;;;;;;;;;;;21.70;99.90;;;;;;5115584;28;19969;-77
2022/05/04 06:11:28;;;;;;;;;;;21.60;99.90;;;;;;5117852;28;19930;-77
2022/05/04 06:13:55;;;;;;;;;;;21.60;99.90;;;;;;5117185;28;19911;-76
2022/05/04 06:16:21;;;;;;;;;;;21.50;99.90;;;;;;5114446;28;19930;-77
2022/05/04 06:18:48;;;;;;;;;;;21.50;99.90;;;;;;5114294;28;19953;-77
2022/05/04 06:21:15;;;;;;;;;;;21.30;99.90;;;;;;5114257;28;19915;-77
2022/05/04 06:23:42;;;;;;;;;;;21.30;99.90;;;;;;5113130;28;19915;-76
2022/05/04 06:26:08;;;;;;;;;;;21.40;99.90;;;;;;5113746;28;19953;-77
2022/05/04 06:28:35;;;;;;;;;;;21.40;99.90;;;;;;5114407;28;19915;-77
2022/05/04 06:36:31;;;;;;;;;;;21.20;99.90;;;;;;5113402;28;19915;-77
2022/05/04 06:38:58;;;;;;;;;;;21.10;99.90;;;;;;5114023;28;19958;-77
2022/05/04 06:41:24;;;;;;;;;;;21.10;99.90;;;;;;5113868;28;20273;-76
2022/05/04 06:43:51;;;;;;;;;;;21.10;99.90;;;;;;5112395;28;19983;-76
2022/05/04 06:46:18;;;;;;;;;;;21.10;99.90;;;;;;5089881;28;20025;-77
2022/05/04 06:48:48;;;;;;;;;;;21.00;99.90;;;;;;5072559;28;20282;-78
2022/05/04 06:51:15;;;;;;;;;;;20.90;99.90;;;;;;5071425;28;20315;-78
2022/05/04 06:53:42;;;;;;;;;;;20.90;99.90;;;;;;5070876;28;19939;-77
2022/05/04 06:56:10;;;;;;;;;;;20.90;99.90;;;;;;5071086;28;19916;-77
2022/05/04 06:58:37;;;;;;;;;;;20.90;99.90;;;;;;5071149;28;19965;-78
2022/05/04 07:01:07;;;;;;;;;;;20.90;99.90;;;;;;5071120;28;19909;-77
2022/05/04 07:03:34;;;;;;;;;;;20.80;99.90;;;;;;5069811;28;19915;-77
2022/05/04 07:06:00;;;;;;;;;;;20.70;99.90;;;;;;5070742;28;19908;-77
2022/05/04 07:08:27;;;;;;;;;;;20.70;99.90;;;;;;5070752;28;20382;-76
2022/05/04 07:10:54;;;;;;;;;;;20.70;99.90;;;;;;5070952;28;19958;-77
2022/05/04 07:13:21;;;;;;;;;;;20.70;99.90;;;;;;5071067;28;19916;-78
2022/05/04 07:15:48;;;;;;;;;;;20.70;99.90;;;;;;5069855;28;20259;-77
2022/05/04 07:18:14;;;;;;;;;;;20.60;99.90;;;;;;5070310;28;20284;-79
2022/05/04 07:20:41;;;;;;;;;;;20.50;99.90;;;;;;5070715;28;19912;-76
2022/05/04 07:23:08;;;;;;;;;;;20.50;99.90;;;;;;5070759;28;20540;-76
2022/05/04 07:25:34;;;;;;;;;;;20.40;99.90;;;;;;5070537;28;20374;-77
2022/05/04 07:28:01;;;;;;;;;;;20.40;99.90;;;;;;5070853;28;19908;-77
2022/05/04 07:30:28;;;;;;;;;;;20.40;99.90;;;;;;5070206;28;19909;-77
2022/05/04 07:32:54;;;;;;;;;;;20.40;99.90;;;;;;5070698;28;20306;-78
2022/05/04 07:35:21;;;;;;;;;;;20.40;99.90;;;;;;5071623;28;19960;-77
2022/05/04 07:37:49;;;;;;;;;;;20.30;99.90;;;;;;5074114;28;19919;-77
2022/05/04 07:43:00;;;;;;;;;;;20.30;99.90;;;;;;5073853;28;20036;-77
2022/05/04 07:45:27;;;;;;;;;;;20.30;99.90;;;;;;5074110;28;19924;-77
2022/05/04 07:47:54;;;;;;;;;;;20.30;99.90;;;;;;5073615;28;19952;-77
2022/05/04 07:50:20;;;;;;;;;;;20.30;99.90;;;;;;5074160;28;19920;-76
2022/05/04 07:52:48;;;;;;;;;;;20.20;99.90;;;;;;5074138;28;19919;-77
2022/05/04 07:55:15;;;;;;;;;;;20.20;99.90;;;;;;5074137;28;19927;-78
2022/05/04 07:57:48;;;;;;;;;;;20.20;99.90;;;;;;5073584;28;19912;-77
2022/05/04 08:05:45;;;;;;;;;;;20.10;99.90;;;;;;5073622;28;19956;-77
2022/05/04 08:08:12;;;;;;;;;;;20.10;99.90;;;;;;5073821;28;20363;-77
2022/05/04 08:10:40;;;;;;;;;;;20.10;99.90;;;;;;5106138;28;20277;-76
2022/05/04 08:13:07;;;;;;;;;;;20.10;99.90;;;;;;5073791;28;19917;-77
2022/05/04 08:15:33;;;;;;;;;;;20.10;99.90;;;;;;5073373;28;19921;-78
2022/05/04 08:18:02;;;;;;;;;;;20.20;99.90;;;;;;5073541;28;19913;-79
2022/05/04 08:20:29;;;;;;;;;;;20.20;99.90;;;;;;5073323;28;19916;-77
2022/05/04 08:22:57;;;;;;;;;;;20.20;99.90;;;;;;5073282;28;19909;-78
2022/05/04 08:25:24;;;;;;;;;;;20.10;99.90;;;;;;5073372;28;20396;-77
2022/05/04 08:27:51;;;;;;;;;;;20.20;99.90;;;;;;5073183;28;20015;-78
2022/05/04 08:30:20;;;;;;;;;;;20.10;99.90;;;;;;5073320;28;19999;-80
2022/05/04 08:32:50;;;;;;;;;;;20.10;99.90;;;;;;5105306;28;19974;-79
2022/05/04 08:35:17;;;;;;;;;;;20.00;99.90;;;;;;5105123;28;20369;-78
2022/05/04 08:37:44;;;;;;;;;;;20.00;99.90;;;;;;5071816;28;19943;-79
2022/05/04 08:40:11;;;;;;;;;;;19.90;99.90;;;;;;5073112;28;19939;-77
2022/05/04 08:42:40;;;;;;;;;;;19.90;99.90;;;;;;5073199;28;20268;-79
2022/05/04 08:45:09;;;;;;;;;;;19.90;99.90;;;;;;5072982;28;20027;-76
2022/05/04 08:47:37;;;;;;;;;;;19.90;99.90;;;;;;5071643;28;19908;-77
2022/05/04 08:50:08;;;;;;;;;;;19.90;99.90;;;;;;5072233;28;19927;-77
2022/05/04 08:52:36;;;;;;;;;;;19.80;99.90;;;;;;5072977;28;20386;-77
2022/05/04 08:55:04;;;;;;;;;;;19.90;99.90;;;;;;5072788;28;19917;-77
2022/05/04 08:57:31;;;;;;;;;;;19.80;99.90;;;;;;5072634;28;19943;-77
2022/05/04 08:59:58;;;;;;;;;;;19.80;99.90;;;;;;5072820;28;19913;-77
2022/05/04 09:02:24;;;;;;;;;;;19.70;99.90;;;;;;5071891;28;19920;-78
2022/05/04 09:04:51;;;;;;;;;;;19.80;99.90;;;;;;5072501;28;19935;-78
2022/05/04 09:07:25;;;;;;;;;;;19.80;99.90;;;;;;5074515;28;19908;-77
2022/05/04 09:09:52;;;;;;;;;;;19.80;99.90;;;;;;5074285;28;19938;-76
2022/05/04 09:12:18;;;;;;;;;;;19.80;99.90;;;;;;5074416;28;20003;-76
2022/05/04 09:14:45;;;;;;;;;;;19.70;99.90;;;;;;5074411;28;19917;-79
2022/05/04 09:17:14;;;;;;;;;;;19.70;99.90;;;;;;5073946;28;19909;-77
2022/05/04 09:22:42;;;;;;;;;;;19.80;99.90;;;;;;5042899;28;19954;-76
2022/05/04 09:25:18;;;;;;;;;;;19.80;99.90;;;;;;5074314;28;19912;-77
2022/05/04 09:27:45;;;;;;;;;;;19.70;99.90;;;;;;5074130;28;19908;-77
2022/05/04 09:30:12;;;;;;;;;;;19.80;99.90;;;;;;5074288;28;19939;-77
2022/05/04 09:32:40;;;;;;;;;;;19.70;99.90;;;;;;5074022;28;19915;-78
2022/05/04 09:35:13;;;;;;;;;;;19.70;99.90;;;;;;5073855;28;19924;-77
2022/05/04 09:45:55;;;;;;;;;;;19.70;99.90;;;;;;5074038;28;19915;-78
2022/05/04 09:48:31;;;;;;;;;;;19.70;99.90;;;;;;5073672;28;19916;-78
2022/05/04 09:51:02;;;;;;;;;;;19.70;99.90;;;;;;5073801;28;19966;-78
2022/05/04 09:53:29;;;;;;;;;;;19.70;99.90;;;;;;5073892;28;20038;-77
2022/05/04 09:55:56;;;;;;;;;;;19.70;99.90;;;;;;5073803;28;19908;-76
2022/05/04 09:58:23;;;;;;;;;;;19.70;99.90;;;;;;5073485;28;20327;-77
2022/05/04 10:00:51;;;;;;;;;;;19.80;99.90;;;;;;5073660;28;19934;-77
2022/05/04 10:03:19;;;;;;;;;;;19.80;99.90;;;;;;5073831;28;19934;-79
2022/05/04 10:05:50;;;;;;;;;;;19.80;99.90;;;;;;5073397;28;19962;-77
2022/05/04 10:08:17;;;;;;;;;;;19.80;99.90;;;;;;5073601;28;19995;-77
2022/05/04 10:10:43;;;;;;;;;;;19.80;99.90;;;;;;5072312;28;20377;-78
2022/05/04 10:13:10;;;;;;;;;;;19.80;99.90;;;;;;5073408;28;19908;-79
2022/05/04 10:15:38;;;;;;;;;;;19.70;99.90;;;;;;5073380;28;20011;-77
2022/05/04 10:18:10;;;;;;;;;;;19.70;99.90;;;;;;5073517;28;20003;-78
2022/05/04 10:20:37;;;;;;;;;;;19.70;99.90;;;;;;5073541;28;19919;-77
2022/05/04 10:23:20;;;;;;;;;;;19.70;99.90;;;;;;5073462;28;19916;-77
2022/05/04 10:25:47;;;;;;;;;;;19.70;99.90;;;;;;5073239;28;19917;-77
2022/05/04 10:28:14;;;;;;;;;;;19.70;99.90;;;;;;5073521;28;19908;-78
2022/05/04 10:31:01;;;;;;;;;;;19.70;99.90;;;;;;5073477;28;19909;-78
2022/05/04 10:33:32;;;;;;;;;;;19.70;99.90;;;;;;5073016;28;19915;-77
2022/05/04 10:36:14;;;;;;;;;;;19.70;99.90;;;;;;5073428;28;19919;-78
2022/05/04 10:38:44;;;;;;;;;;;19.70;99.90;;;;;;5073387;28;19991;-78
2022/05/04 10:41:12;;;;;;;;;;;19.60;99.90;;;;;;5105755;28;19915;-78
2022/05/04 10:43:50;;;;;;;;;;;19.60;99.90;;;;;;5073078;28;19908;-77
2022/05/04 10:46:21;;;;;;;;;;;19.70;99.90;;;;;;5072682;28;19912;-77
2022/05/04 10:48:47;;;;;;;;;;;19.60;99.90;;;;;;5073029;28;20367;-79
2022/05/04 10:51:18;;;;;;;;;;;19.60;99.90;;;;;;5072974;28;19959;-77
2022/05/04 10:53:46;;;;;;;;;;;19.60;99.90;;;;;;5072945;28;19912;-78
2022/05/04 10:56:14;;;;;;;;;;;19.60;99.90;;;;;;5073012;28;19916;-78
2022/05/04 10:58:55;;;;;;;;;;;19.60;99.90;;;;;;5073245;28;20317;-79
2022/05/04 11:01:27;;;;;;;;;;;19.60;99.90;;;;;;5072640;28;19909;-77
2022/05/04 11:03:57;;;;;;;;;;;19.60;99.90;;;;;;5072774;28;20275;-78
2022/05/04 11:06:27;;;;;;;;;;;19.60;99.90;;;;;;5072886;28;19916;-77
2022/05/04 11:08:56;;;;;;;;;;;19.70;99.90;;;;;;5072826;28;19916;-77
2022/05/04 11:11:24;;;;;;;;;;;19.70;99.90;;;;;;5075557;28;19961;-77
2022/05/04 11:13:51;;;;;;;;;;;19.80;99.90;;;;;;5076371;28;19917;-77
2022/05/04 11:16:17;;;;;;;;;;;19.80;99.90;;;;;;5076113;28;19920;-78
2022/05/04 11:18:44;;;;;;;;;;;19.90;99.90;;;;;;5076682;28;19948;-78
2022/05/04 11:21:12;;;;;;;;;;;19.90;99.90;;;;;;5076678;28;19908;-77
2022/05/04 11:23:38;;;;;;;;;;;19.90;99.90;;;;;;5076439;28;19908;-78
2022/05/04 11:26:05;;;;;;;;;;;19.80;99.90;;;;;;5076535;28;19930;-77
2022/05/04 11:28:34;;;;;;;;;;;19.80;99.90;;;;;;5076642;28;19916;-78
2022/05/04 11:31:00;;;;;;;;;;;19.80;99.90;;;;;;5075944;28;19916;-79
2022/05/04 11:33:27;;;;;;;;;;;19.80;99.90;;;;;;5076248;28;19919;-79
2022/05/04 11:35:54;;;;;;;;;;;19.80;99.90;;;;;;5076121;28;20359;-77
2022/05/04 11:38:22;;;;;;;;;;;19.80;99.90;;;;;;5076371;28;19912;-79
2022/05/04 11:40:50;;;;;;;;;;;19.90;99.90;;;;;;5076336;28;20003;-77
2022/05/04 11:43:22;;;;;;;;;;;19.90;99.90;;;;;;5076578;28;19908;-79
2022/05/04 11:45:49;;;;;;;;;;;19.90;99.90;;;;;;5075549;28;19912;-79
2022/05/04 11:48:18;;;;;;;;;;;19.80;99.90;;;;;;5076085;28;19909;-77
2022/05/04 11:50:45;;;;;;;;;;;19.80;99.90;;;;;;5075812;28;19965;-79
2022/05/04 11:53:12;;;;;;;;;;;19.80;99.90;;;;;;5073231;28;20381;-80
2022/05/04 11:55:39;;;;;;;;;;;19.70;99.90;;;;;;5073795;28;19924;-78
2022/05/04 11:58:10;;;;;;;;;;;19.80;99.90;;;;;;5073793;28;19958;-80
2022/05/04 12:00:37;;;;;;;;;;;19.80;99.90;;;;;;5073631;28;19943;-78
2022/05/04 12:03:05;;;;;;;;;;;19.80;99.90;;;;;;5073846;28;19995;-79
2022/05/04 12:05:33;;;;;;;;;;;19.80;99.90;;;;;;5073161;28;19909;-79
2022/05/04 12:08:00;;;;;;;;;;;19.80;99.90;;;;;;5073608;28;19919;-80
2022/05/04 12:10:27;;;;;;;;;;;19.80;99.90;;;;;;5073610;28;20003;-80
2022/05/04 12:12:54;;;;;;;;;;;19.80;99.90;;;;;;5073753;28;19915;-80
2022/05/04 12:15:24;;;;;;;;;;;19.80;99.90;;;;;;5073054;28;19916;-80
2022/05/04 12:17:50;;;;;;;;;;;19.80;99.90;;;;;;5072831;28;19936;-79
2022/05/04 12:20:21;;;;;;;;;;;19.80;99.90;;;;;;5073436;28;19913;-80
2022/05/04 12:22:48;;;;;;;;;;;19.90;99.90;;;;;;5073791;28;19915;-80
2022/05/04 12:25:15;;;;;;;;;;;19.90;99.90;;;;;;5073663;28;19908;-79
2022/05/04 12:27:44;;;;;;;;;;;19.80;99.90;;;;;;5073167;28;19991;-80
2022/05/04 12:33:09;;;;;;;;;;;19.90;99.90;;;;;;5073414;28;20274;-77
2022/05/04 12:35:35;;;;;;;;;;;19.90;99.90;;;;;;5072891;28;19916;-79
2022/05/04 12:38:03;;;;;;;;;;;19.90;99.90;;;;;;5073410;28;19934;-79
2022/05/04 12:40:34;;;;;;;;;;;19.90;99.90;;;;;;5073548;28;19962;-80
2022/05/04 12:43:01;;;;;;;;;;;19.90;99.90;;;;;;5073166;28;19908;-77
2022/05/04 12:45:28;;;;;;;;;;;19.90;99.90;;;;;;5072356;28;19932;-77
2022/05/04 12:47:55;;;;;;;;;;;19.90;99.90;;;;;;5072846;28;19955;-79
2022/05/04 12:50:23;;;;;;;;;;;19.90;99.90;;;;;;5072788;28;19921;-80
2022/05/04 12:52:50;;;;;;;;;;;19.90;99.90;;;;;;5072978;28;19912;-79
2022/05/04 12:55:17;;;;;;;;;;;19.90;99.90;;;;;;5073243;28;19975;-77
2022/05/04 12:57:44;;;;;;;;;;;19.90;99.90;;;;;;5072161;28;19919;-80
2022/05/04 13:00:15;;;;;;;;;;;19.90;99.90;;;;;;5072225;28;20007;-80
2022/05/04 13:02:42;;;;;;;;;;;19.90;99.90;;;;;;5072687;28;20390;-81
2022/05/04 13:05:09;;;;;;;;;;;19.90;99.90;;;;;;5072671;28;19912;-79
2022/05/04 13:07:37;;;;;;;;;;;19.90;99.90;;;;;;5072540;28;20128;-79
2022/05/04 13:10:04;;;;;;;;;;;19.90;99.90;;;;;;5072193;28;20367;-79
2022/05/04 13:12:30;;;;;;;;;;;19.90;99.90;;;;;;5072479;28;20426;-80
2022/05/04 13:14:57;;;;;;;;;;;19.90;99.90;;;;;;5071989;28;19955;-79
2022/05/04 13:17:24;;;;;;;;;;;19.90;99.90;;;;;;5072408;28;19909;-81
2022/05/04 13:19:50;;;;;;;;;;;19.90;99.90;;;;;;5072184;28;19970;-80
2022/05/04 13:22:17;;;;;;;;;;;19.90;99.90;;;;;;5071821;28;20526;-80
2022/05/04 13:24:44;;;;;;;;;;;19.90;99.90;;;;;;5072250;28;19908;-78
2022/05/04 13:27:11;;;;;;;;;;;20.00;99.90;;;;;;5072276;28;19975;-80
2022/05/04 13:29:37;;;;;;;;;;;19.90;99.90;;;;;;5104368;28;19913;-79
2022/05/04 13:32:05;;;;;;;;;;;20.00;99.90;;;;;;5072134;28;19931;-80
2022/05/04 13:34:32;;;;;;;;;;;19.90;99.90;;;;;;5071649;28;20365;-80
2022/05/04 13:36:58;;;;;;;;;;;19.90;99.90;;;;;;5071880;28;19912;-80
2022/05/04 13:39:25;;;;;;;;;;;19.90;99.90;;;;;;5071993;28;19915;-80
2022/05/04 13:41:52;;;;;;;;;;;19.90;99.90;;;;;;5071934;28;19991;-79
2022/05/04 13:44:18;;;;;;;;;;;19.90;99.90;;;;;;5072072;28;19913;-79
2022/05/04 13:46:45;;;;;;;;;;;19.90;99.90;;;;;;5071805;28;19908;-80
2022/05/04 13:49:11;;;;;;;;;;;19.90;99.90;;;;;;5071254;28;20382;-78
2022/05/04 13:54:24;;;;;;;;;;;19.90;99.90;;;;;;5071977;28;20354;-78
2022/05/04 13:56:51;;;;;;;;;;;19.90;99.90;;;;;;5071844;28;20386;-78
2022/05/04 13:59:17;;;;;;;;;;;19.90;99.90;;;;;;5071819;28;19909;-80
2022/05/04 14:01:45;;;;;;;;;;;19.90;99.90;;;;;;5071222;28;19915;-79
2022/05/04 14:04:12;;;;;;;;;;;19.90;99.90;;;;;;5071803;28;19912;-79
2022/05/04 14:06:39;;;;;;;;;;;19.90;99.90;;;;;;5071757;28;19916;-79
2022/05/04 14:09:06;;;;;;;;;;;19.90;99.90;;;;;;5071662;28;19958;-76
2022/05/04 14:11:32;;;;;;;;;;;19.80;99.90;;;;;;5077321;28;19912;-79
2022/05/04 14:16:43;;;;;;;;;;;19.80;99.90;;;;;;5092921;28;19919;-78
2022/05/04 14:19:10;;;;;;;;;;;19.80;99.90;;;;;;5091391;28;19912;-78
2022/05/04 14:21:37;;;;;;;;;;;19.80;99.90;;;;;;5101638;28;20006;-80
2022/05/04 14:24:04;;;;;;;;;;;19.80;99.90;;;;;;5091451;28;20323;-75
2022/05/04 14:26:34;;;;;;;;;;;19.80;99.90;;;;;;5091678;28;19920;-76
2022/05/04 14:29:00;;;;;;;;;;;19.80;99.90;;;;;;5096943;28;20285;-77
2022/05/04 14:31:27;;;;;;;;;;;19.80;99.90;;;;;;5111772;28;19916;-76
2022/05/04 14:33:54;;;;;;;;;;;19.70;99.90;;;;;;5110334;28;20010;-76
2022/05/04 14:36:21;;;;;;;;;;;19.70;99.90;;;;;;5111817;28;19912;-75
2022/05/04 14:38:47;;;;;;;;;;;19.60;99.90;;;;;;5110335;28;19913;-76
2022/05/04 14:41:14;;;;;;;;;;;19.60;99.90;;;;;;5108196;28;20390;-76
2022/05/04 14:43:41;;;;;;;;;;;19.50;99.90;;;;;;5109914;28;19914;-76
2022/05/04 14:46:08;;;;;;;;;;;19.40;99.90;;;;;;5111992;28;19961;-77
2022/05/04 14:48:34;;;;;;;;;;;19.40;99.90;;;;;;5114320;28;19912;-77
2022/05/04 14:51:01;;;;;;;;;;;19.30;99.90;;;;;;5114077;28;19924;-79
2022/05/04 14:53:28;;;;;;;;;;;19.30;99.90;;;;;;5115061;28;19916;-77
2022/05/04 14:55:56;;;;;;;;;;;19.20;99.90;;;;;;5115368;28;20015;-76
2022/05/04 14:58:26;;;;;;;;;;;19.20;99.90;;;;;;5114360;28;20073;-77
2022/05/04 15:00:53;;;;;;;;;;;19.10;99.90;;;;;;5114877;28;19912;-76
2022/05/04 15:06:06;;;;;;;;;;;19.00;99.90;;;;;;5116161;28;20331;-76
2022/05/04 15:08:33;;;;;;;;;;;18.90;99.90;;;;;;5115228;28;19915;-75
2022/05/04 15:11:00;;;;;;;;;;;18.90;99.90;;;;;;5115598;28;19931;-76